aviador You're here:

KRVS Decoded Metar

TULSA in OK, USA
Report Time2017-06-24 21:53:00
UTC Time2017-06-24 22:16:53
Flight Rules vfr VFR
Wind020° at 07 kt
W.Decomp.*RWY 01: 7.0 kt HW 0.5 kt RCW
RWY 31: 3.1 kt HW 6.3 kt RCW
W.Rank020° ranks 7
Current wind is below 020° avg. (7.3)
Visibility9999 m
Phenomena:N/A
Clouds:N/A
Expected CloudBase > 7,200 ft AGL from Temp-Dew spread
CeilingNone
Temp29°C (ISA +15)
Dew Point11°C (33% RH)
Heat Index28.1°C
AAT26.8°C
QNH1021 hPa
Density Alt2,323 ft
Elevation656 ft
Report Wrong Elevation
Raw Report
KRVS 242153Z 02007KT 10SM CLR 29/11 A3014 RMK AO2 SLP210
T02890111=

Extra information for KRVS:More info

Metar Taf Metar & Taf Last 4 Metars F.Rules Stats Wind Profile Meteogram Temp Stats Airport Information Weather charts Add Link Nearby VenuesMetar ALERT Operation Metar Decoded Social comments

AIRNAV info for KRVS